Time;durP1;ratioP1;P1;durP2;ratioP2;P2;SDS_P1;SDS_P2;PMS_P1;PMS_P2;Temp;Humidity;BMP_temperature;BMP_pressure;BME280_temperature;BME280_humidity;BME280_pressure;Samples;Min_cycle;Max_cycle;Signal;HPM_P1;HPM_P2
2023/02/05 00:00:55;;;;;;;65.00;23.30;;;;;;;-6.21;83.30;102312.80;107649;1257;81703;-60
2023/02/05 00:03:47;;;;;;;57.50;21.40;;;;;;;-6.04;83.31;102314.30;107634;1254;101158;-57
2023/02/05 00:06:25;;;;;;;44.20;17.70;;;;;;;-5.91;83.31;102315.91;107632;1253;88225;-57
2023/02/05 00:09:00;;;;;;;40.10;18.20;;;;;;;-5.80;83.21;102312.96;107660;1256;92316;-57
2023/02/05 00:11:39;;;;;;;34.30;14.40;;;;;;;-5.71;83.23;102309.91;107578;1255;79980;-58
2023/02/05 00:14:16;;;;;;;46.20;18.90;;;;;;;-5.63;83.48;102308.12;107609;1254;81201;-60
2023/02/05 00:16:51;;;;;;;83.80;33.60;;;;;;;-5.59;83.32;102304.52;107706;1254;97318;-61
2023/02/05 00:19:33;;;;;;;50.50;23.00;;;;;;;-5.56;83.56;102301.45;107659;1256;88449;-60
2023/02/05 00:22:17;;;;;;;60.40;25.20;;;;;;;-5.49;83.21;102305.99;107583;1255;92308;-59
2023/02/05 00:24:57;;;;;;;28.30;13.50;;;;;;;-5.45;83.13;102306.08;107595;1251;82879;-60
2023/02/05 00:27:40;;;;;;;49.00;19.80;;;;;;;-5.39;83.17;102311.16;107614;1257;83312;-60
2023/02/05 00:30:16;;;;;;;54.70;24.10;;;;;;;-5.37;83.27;102309.52;107570;1257;99217;-57
2023/02/05 00:33:01;;;;;;;30.70;14.30;;;;;;;-5.35;83.19;102308.94;107612;1257;88796;-57
2023/02/05 00:35:42;;;;;;;57.00;26.90;;;;;;;-5.26;83.08;102311.35;107572;1254;94550;-57
2023/02/05 00:38:28;;;;;;;54.10;20.80;;;;;;;-5.21;83.02;102312.08;107584;1254;78110;-57
2023/02/05 00:41:11;;;;;;;38.10;16.30;;;;;;;-5.14;83.27;102312.26;107589;1256;81218;-58
2023/02/05 00:43:48;;;;;;;45.00;17.70;;;;;;;-5.08;83.36;102310.48;107614;1257;96227;-58
2023/02/05 00:46:30;;;;;;;32.70;14.20;;;;;;;-5.08;83.34;102305.55;107640;1254;87638;-58
2023/02/05 00:49:07;;;;;;;30.00;12.20;;;;;;;-5.07;82.76;102307.11;107639;1254;94937;-61
2023/02/05 00:51:56;;;;;;;27.60;12.40;;;;;;;-5.08;83.19;102314.52;107648;1254;81977;-61
2023/02/05 00:54:33;;;;;;;30.00;11.80;;;;;;;-5.04;83.34;102321.25;107658;1254;82617;-57
2023/02/05 00:57:13;;;;;;;31.90;12.00;;;;;;;-4.97;83.04;102320.89;107587;1255;98312;-59
2023/02/05 00:59:56;;;;;;;37.10;13.60;;;;;;;-4.96;83.16;102325.76;107666;1255;88568;-60
2023/02/05 01:02:40;;;;;;;38.40;17.60;;;;;;;-4.92;83.02;102327.94;107658;1254;94554;-61
2023/02/05 01:05:15;;;;;;;37.90;17.30;;;;;;;-4.88;83.27;102328.89;107613;1254;80592;-60
2023/02/05 01:07:52;;;;;;;42.40;19.30;;;;;;;-4.82;83.30;102326.21;107614;1254;81990;-60
2023/02/05 01:10:34;;;;;;;33.10;17.60;;;;;;;-4.76;83.33;102324.45;107623;1254;97570;-57
2023/02/05 01:13:12;;;;;;;37.80;17.10;;;;;;;-4.70;83.27;102319.39;107625;1252;88607;-59
2023/02/05 01:15:47;;;;;;;40.30;17.90;;;;;;;-4.65;83.52;102319.76;107564;1253;95903;-60
2023/02/05 01:18:24;;;;;;;38.40;16.90;;;;;;;-4.63;83.28;102315.48;107638;1254;80318;-60
2023/02/05 01:21:04;;;;;;;36.30;14.70;;;;;;;-4.66;83.08;102311.36;107631;1255;83150;-61
2023/02/05 01:23:42;;;;;;;39.00;16.50;;;;;;;-4.63;83.22;102316.18;107678;1251;97359;-58
2023/02/05 01:26:24;;;;;;;40.30;17.20;;;;;;;-4.63;83.09;102316.88;107602;1254;89311;-58
2023/02/05 01:29:09;;;;;;;33.20;15.60;;;;;;;-4.61;83.32;102314.89;107591;1255;94009;-57
2023/02/05 01:31:52;;;;;;;31.20;13.10;;;;;;;-4.60;83.29;102320.46;107592;1254;81938;-58
2023/02/05 01:34:34;;;;;;;27.10;12.10;;;;;;;-4.56;83.15;102320.70;107627;1254;80710;-58
2023/02/05 01:37:18;;;;;;;23.10;11.00;;;;;;;-4.55;83.42;102315.92;107585;1253;98024;-58
2023/02/05 01:39:53;;;;;;;25.00;10.20;;;;;;;-4.51;83.19;102313.69;107591;1251;89504;-58
2023/02/05 01:42:30;;;;;;;27.10;12.50;;;;;;;-4.46;83.29;102311.42;107549;1253;93445;-57
2023/02/05 01:46:04;;;;;;;21.00;9.70;;;;;;;-4.40;83.12;102309.66;107749;1253;78766;-61
2023/02/05 01:48:51;;;;;;;31.10;15.50;;;;;;;-4.35;83.26;102302.65;107545;1254;81498;-61
2023/02/05 01:51:34;;;;;;;52.50;27.50;;;;;;;-4.36;83.03;102305.30;107424;1257;99224;-61
2023/02/05 01:54:12;;;;;;;34.10;16.90;;;;;;;-4.41;83.07;102302.30;107593;1257;88974;-60
2023/02/05 01:56:56;;;;;;;26.40;13.50;;;;;;;-4.42;82.94;102304.43;107611;1254;93331;-59
2023/02/05 01:59:40;;;;;;;28.20;13.10;;;;;;;-4.43;83.16;102300.95;107623;1252;81950;-59
2023/02/05 02:02:15;;;;;;;48.20;21.00;;;;;;;-4.47;82.90;102301.60;107587;1253;80836;-59
2023/02/05 02:05:00;;;;;;;69.70;27.40;;;;;;;-4.50;82.98;102306.11;107629;1253;99751;-57
2023/02/05 02:07:40;;;;;;;39.20;16.90;;;;;;;-4.48;83.17;102304.62;107626;1251;88742;-58
2023/02/05 02:10:20;;;;;;;38.40;15.00;;;;;;;-4.45;82.91;102304.53;107661;1255;93060;-61
2023/02/05 02:12:58;;;;;;;35.00;15.20;;;;;;;-4.44;82.95;102303.97;107618;1251;78917;-61
2023/02/05 02:15:35;;;;;;;32.60;14.40;;;;;;;-4.42;82.99;102303.77;107672;1254;81202;-61
2023/02/05 02:18:27;;;;;;;25.00;11.20;;;;;;;-4.43;83.05;102304.99;107630;1251;98122;-59
2023/02/05 02:21:50;;;;;;;37.10;15.60;;;;;;;-4.41;82.89;102308.29;107560;1254;88525;-57
2023/02/05 02:25:02;;;;;;;25.60;11.40;;;;;;;-4.41;82.89;102308.27;107585;1255;94472;-60
2023/02/05 02:27:48;;;;;;;28.90;12.20;;;;;;;-4.42;82.83;102306.90;107582;1254;81720;-59
2023/02/05 02:30:34;;;;;;;38.80;17.10;;;;;;;-4.43;82.77;102304.66;107642;1253;80240;-60
2023/02/05 02:33:19;;;;;;;29.50;14.50;;;;;;;-4.41;82.78;102303.00;107616;1253;99938;-58
2023/02/05 02:36:04;;;;;;;28.60;16.60;;;;;;;-4.39;83.10;102301.88;107581;1254;87480;-57
2023/02/05 02:38:51;;;;;;;36.70;21.80;;;;;;;-4.36;83.05;102307.23;107582;1253;94103;-57
2023/02/05 02:41:36;;;;;;;43.00;24.60;;;;;;;-4.33;82.82;102315.06;107600;1251;79138;-57
2023/02/05 02:44:20;;;;;;;49.30;22.60;;;;;;;-4.32;83.02;102316.96;107633;1255;82721;-59
2023/02/05 02:47:10;;;;;;;57.80;22.10;;;;;;;-4.25;82.96;102318.33;107608;1255;97574;-60
2023/02/05 02:50:01;;;;;;;42.10;16.30;;;;;;;-4.21;82.88;102318.37;107618;1253;89263;-60
2023/02/05 02:52:51;;;;;;;32.60;14.60;;;;;;;-4.22;82.93;102323.87;107569;1254;94710;-60
2023/02/05 02:55:37;;;;;;;34.90;14.40;;;;;;;-4.23;82.97;102327.23;107639;1254;79802;-61
2023/02/05 02:58:20;;;;;;;31.50;14.10;;;;;;;-4.27;82.79;102327.17;107663;1253;79975;-58
2023/02/05 03:01:06;;;;;;;25.40;11.70;;;;;;;-4.29;82.98;102328.84;107591;1256;98716;-57
2023/02/05 03:03:48;;;;;;;27.20;12.10;;;;;;;-4.29;82.96;102334.44;107601;1254;89167;-60
2023/02/05 03:06:27;;;;;;;15.70;7.60;;;;;;;-4.26;83.08;102335.05;107603;1252;94525;-60
2023/02/05 03:09:12;;;;;;;19.50;8.40;;;;;;;-4.22;83.01;102336.52;107601;1253;79107;-61
2023/02/05 03:11:53;;;;;;;18.10;9.50;;;;;;;-4.20;82.99;102340.48;107650;1252;81738;-60
2023/02/05 03:14:33;;;;;;;;;;;;;;;-4.14;83.28;102341.38;107634;1255;98384;-58
2023/02/05 03:17:17;;;;;;;21.90;10.30;;;;;;;-4.09;83.17;102339.83;107640;1254;86761;-57
2023/02/05 03:20:04;;;;;;;28.10;13.40;;;;;;;-4.09;83.20;102338.23;107631;1251;93790;-60
2023/02/05 03:22:43;;;;;;;25.50;11.80;;;;;;;-4.09;83.31;102339.61;107585;1251;78567;-60
2023/02/05 03:25:25;;;;;;;18.90;9.70;;;;;;;-4.09;82.73;102337.00;107652;1253;81694;-59
2023/02/05 03:28:05;;;;;;;41.20;16.20;;;;;;;-4.08;83.28;102335.21;107586;1255;99942;-67
2023/02/05 03:30:54;;;;;;;30.90;14.90;;;;;;;-4.08;82.98;102331.16;107584;1255;88621;-60
2023/02/05 03:33:57;;;;;;;47.50;24.40;;;;;;;-4.05;83.16;102323.84;107599;1255;95292;-57
2023/02/05 03:36:52;;;;;;;26.00;12.20;;;;;;;-4.05;83.04;102321.21;107622;1253;80414;-57
2023/02/05 03:39:43;;;;;;;30.90;14.00;;;;;;;-4.06;82.98;102316.85;107652;1252;82325;-58
2023/02/05 03:42:36;;;;;;;29.00;15.50;;;;;;;-4.03;82.89;102319.39;107683;1255;99102;-61
2023/02/05 03:45:39;;;;;;;33.00;17.60;;;;;;;-4.00;82.99;102324.91;107662;1252;87788;-57
2023/02/05 03:48:41;;;;;;;28.70;12.30;;;;;;;-3.99;82.81;102324.19;107628;1253;93682;-60
2023/02/05 03:51:33;;;;;;;41.80;16.20;;;;;;;-4.03;82.65;102320.08;107592;1251;77974;-60
2023/02/05 03:54:21;;;;;;;38.70;18.20;;;;;;;-4.06;82.78;102315.96;107581;1255;82238;-57
2023/02/05 03:57:06;;;;;;;35.90;16.00;;;;;;;-4.08;82.71;102317.95;107354;1252;323137;-58
2023/02/05 03:59:47;;;;;;;41.70;17.80;;;;;;;-4.07;82.77;102317.39;107655;1253;87120;-61
2023/02/05 04:02:25;;;;;;;29.80;14.70;;;;;;;-4.05;82.57;102324.36;107630;1252;93525;-61
2023/02/05 04:05:04;;;;;;;18.40;9.10;;;;;;;-4.05;82.58;102324.91;107651;1254;82791;-61
2023/02/05 04:07:39;;;;;;;20.80;10.40;;;;;;;-4.05;82.44;102323.85;107571;1252;80883;-61
2023/02/05 04:10:14;;;;;;;29.80;14.60;;;;;;;-4.03;82.81;102326.59;107583;1252;97066;-58
2023/02/05 04:12:49;;;;;;;26.10;14.40;;;;;;;-3.97;82.56;102321.47;107612;1253;88747;-58
2023/02/05 04:15:26;;;;;;;23.40;12.40;;;;;;;-3.99;82.76;102321.36;107616;1253;95355;-58
2023/02/05 04:18:02;;;;;;;35.50;20.80;;;;;;;-4.01;82.61;102319.48;107614;1251;78273;-57
2023/02/05 04:20:41;;;;;;;28.20;15.60;;;;;;;-4.05;82.67;102324.36;107643;1252;81260;-58
2023/02/05 04:23:25;;;;;;;16.30;9.60;;;;;;;-4.07;82.67;102327.45;107653;1253;98391;-58
2023/02/05 04:26:07;;;;;;;21.70;12.30;;;;;;;-4.11;82.45;102331.95;107609;1255;88089;-58
2023/02/05 04:28:46;;;;;;;25.40;14.30;;;;;;;-4.12;82.33;102334.98;107618;1251;93565;-58
2023/02/05 04:31:31;;;;;;;33.30;18.50;;;;;;;-4.14;82.45;102337.86;107563;1253;83110;-57
2023/02/05 04:34:11;;;;;;;21.50;13.40;;;;;;;-4.18;82.58;102339.20;107648;1253;83262;-61
2023/02/05 04:36:54;;;;;;;14.20;9.00;;;;;;;-4.19;82.37;102342.21;107587;1252;97891;-62
2023/02/05 04:39:36;;;;;;;22.30;13.00;;;;;;;-4.18;82.43;102345.53;107628;1252;87574;-58
2023/02/05 04:42:21;;;;;;;22.20;12.80;;;;;;;-4.15;82.64;102349.66;107602;1252;94659;-58
2023/02/05 04:45:04;;;;;;;16.00;9.60;;;;;;;-4.12;82.65;102351.15;107595;1253;80249;-56
2023/02/05 04:47:50;;;;;;;13.40;8.00;;;;;;;-4.06;82.77;102350.27;107654;1252;83230;-56
2023/02/05 04:50:27;;;;;;;19.60;12.10;;;;;;;-4.02;82.26;102352.42;107586;1254;99445;-57
2023/02/05 04:53:07;;;;;;;16.20;9.20;;;;;;;-4.03;82.83;102351.94;107619;1255;87770;-56
2023/02/05 04:55:44;;;;;;;15.40;9.20;;;;;;;-4.05;82.19;102353.92;107533;1254;94050;-56
2023/02/05 04:58:24;;;;;;;21.90;12.60;;;;;;;-4.08;82.51;102353.85;107601;1251;81288;-56
2023/02/05 05:01:01;;;;;;;17.40;10.70;;;;;;;-4.10;82.43;102354.06;107648;1253;80893;-56
2023/02/05 05:03:38;;;;;;;14.70;7.60;;;;;;;-4.14;82.52;102351.41;107637;1251;97208;-58
2023/02/05 05:06:20;;;;;;;15.40;9.10;;;;;;;-4.16;82.47;102349.71;107615;1253;87220;-58
2023/02/05 05:09:00;;;;;;;8.20;5.60;;;;;;;-4.15;82.33;102350.91;107594;1251;94475;-56
2023/02/05 05:11:39;;;;;;;13.70;6.90;;;;;;;-4.18;82.38;102347.14;107566;1253;82030;-56
2023/02/05 05:14:20;;;;;;;11.20;6.80;;;;;;;-4.13;82.34;102347.15;107638;1255;82998;-56
2023/02/05 05:16:57;;;;;;;12.30;7.20;;;;;;;-4.09;82.32;102355.47;107597;1251;98007;-56
2023/02/05 05:19:42;;;;;;;11.10;5.60;;;;;;;-4.08;82.52;102353.86;107607;1252;88257;-55
2023/02/05 05:22:24;;;;;;;10.20;5.20;;;;;;;-4.04;82.55;102351.77;107587;1255;95223;-55
2023/02/05 05:25:03;;;;;;;9.00;5.20;;;;;;;-3.98;82.48;102348.08;107643;1251;79964;-57
2023/02/05 05:27:47;;;;;;;10.10;5.40;;;;;;;-3.97;82.39;102350.85;107607;1252;82393;-56
2023/02/05 05:30:33;;;;;;;10.40;6.00;;;;;;;-3.98;82.24;102351.77;107616;1255;98149;-59
2023/02/05 05:33:09;;;;;;;11.20;6.30;;;;;;;-3.98;82.08;102353.36;107620;1253;86882;-58
2023/02/05 05:35:46;;;;;;;13.70;7.40;;;;;;;-4.01;82.19;102355.89;107591;1251;94924;-56
2023/02/05 05:38:20;;;;;;;25.10;12.30;;;;;;;-4.03;82.28;102360.38;107583;1255;82147;-57
2023/02/05 05:44:00;;;;;;;18.10;10.60;;;;;;;-4.09;82.19;102364.25;107572;1255;98024;-59
2023/02/05 05:46:41;;;;;;;17.90;10.90;;;;;;;-4.10;82.36;102362.19;107605;1253;87173;-57
2023/02/05 05:49:24;;;;;;;18.60;10.40;;;;;;;-4.08;82.34;102361.59;107611;1253;95439;-58
2023/02/05 05:52:04;;;;;;;17.30;8.90;;;;;;;-4.08;82.39;102368.61;107595;1252;80591;-58
2023/02/05 05:54:50;;;;;;;15.60;7.70;;;;;;;-4.05;82.31;102372.23;107623;1252;81672;-58
2023/02/05 05:57:36;;;;;;;10.80;6.90;;;;;;;-4.03;82.63;102375.17;107580;1252;98712;-57
2023/02/05 06:00:16;;;;;;;9.90;7.20;;;;;;;-4.03;82.72;102382.89;107634;1252;88193;-56
2023/02/05 06:02:51;;;;;;;10.70;6.90;;;;;;;-4.05;82.35;102387.53;107609;1251;95567;-56
2023/02/05 06:05:28;;;;;;;13.10;8.00;;;;;;;-4.08;82.85;102390.98;107607;1252;80494;-58
2023/02/05 06:08:09;;;;;;;11.60;6.30;;;;;;;-4.07;82.38;102398.16;107599;1253;82604;-56
2023/02/05 06:10:46;;;;;;;11.60;7.20;;;;;;;-4.09;82.28;102396.46;107622;1256;99403;-55
2023/02/05 06:13:28;;;;;;;12.60;7.30;;;;;;;-4.07;82.17;102397.98;107615;1253;87997;-55
2023/02/05 06:16:06;;;;;;;13.70;7.10;;;;;;;-4.09;82.19;102399.79;107608;1251;93926;-54
2023/02/05 06:18:43;;;;;;;12.00;7.10;;;;;;;-4.07;82.36;102399.73;107625;1252;80348;-60
2023/02/05 06:21:25;;;;;;;14.40;7.30;;;;;;;-4.03;82.29;102399.95;107589;1253;82655;-59
2023/02/05 06:24:03;;;;;;;90.90;40.60;;;;;;;-3.97;82.32;102403.48;107597;1251;98106;-56
2023/02/05 06:26:44;;;;;;;250.90;115.00;;;;;;;-3.97;82.16;102403.65;107601;1254;88902;-57
2023/02/05 06:29:26;;;;;;;171.80;81.20;;;;;;;-3.95;82.31;102406.73;107643;1253;94546;-57
2023/02/05 06:32:07;;;;;;;108.60;59.20;;;;;;;-3.94;82.52;102410.58;107575;1253;80818;-57
2023/02/05 06:34:46;;;;;;;145.50;85.40;;;;;;;-3.93;82.18;102418.14;107612;1251;82470;-56
2023/02/05 06:37:27;;;;;;;113.60;68.90;;;;;;;-3.93;82.18;102418.98;107595;1251;100138;-56
2023/02/05 06:40:08;;;;;;;146.50;66.10;;;;;;;-3.90;82.20;102414.87;107613;1255;89437;-56
2023/02/05 06:42:52;;;;;;;65.90;32.10;;;;;;;-3.91;82.37;102412.77;107573;1255;94856;-57
2023/02/05 06:45:30;;;;;;;;;;;;;;;-3.89;82.33;102412.37;107711;1252;81592;-60
2023/02/05 06:48:13;;;;;;;59.60;25.00;;;;;;;-3.87;82.43;102414.60;107681;1251;81840;-60
2023/02/05 06:50:54;;;;;;;44.90;18.70;;;;;;;-3.82;82.35;102417.58;107535;1252;97969;-57
2023/02/05 06:53:38;;;;;;;48.10;20.80;;;;;;;-3.77;82.26;102421.45;107562;1255;88473;-57
2023/02/05 06:56:20;;;;;;;37.10;16.10;;;;;;;-3.76;82.33;102421.44;107620;1253;94212;-57
2023/02/05 06:59:04;;;;;;;58.60;24.00;;;;;;;-3.76;82.48;102421.79;107607;1254;76557;-57
2023/02/05 07:01:47;;;;;;;50.00;18.90;;;;;;;-3.70;82.14;102427.23;107594;1255;83008;-59
2023/02/05 07:04:30;;;;;;;43.30;18.20;;;;;;;-3.64;82.13;102427.37;107627;1255;99602;-58
2023/02/05 07:07:05;;;;;;;82.10;32.00;;;;;;;-3.60;82.23;102432.90;107625;1252;87065;-59
2023/02/05 07:09:44;;;;;;;75.60;28.00;;;;;;;-3.61;82.11;102432.93;107643;1255;91777;-59
2023/02/05 07:12:23;;;;;;;103.20;41.20;;;;;;;-3.62;82.01;102434.71;107621;1252;80154;-57
2023/02/05 07:15:04;;;;;;;68.10;31.90;;;;;;;-3.60;82.05;102443.81;107614;1252;82981;-57
2023/02/05 07:17:39;;;;;;;108.10;55.00;;;;;;;-3.56;82.00;102445.98;107614;1255;99952;-58
2023/02/05 07:20:12;;;;;;;;;;;;;;;-3.53;81.95;102448.34;107620;1255;88188;-57
2023/02/05 07:22:47;;;;;;;79.10;31.00;;;;;;;-3.48;81.92;102450.65;107591;1253;95051;-57
2023/02/05 07:25:24;;;;;;;59.90;23.70;;;;;;;-3.44;81.72;102446.09;107638;1253;80923;-59
2023/02/05 07:28:07;;;;;;;67.30;25.40;;;;;;;-3.28;81.74;102449.08;107602;1253;83329;-56
2023/02/05 07:30:48;;;;;;;36.60;15.90;;;;;;;-3.18;81.70;102452.10;107613;1251;99413;-59
2023/02/05 07:33:29;;;;;;;28.70;13.50;;;;;;;-3.08;81.57;102448.39;107607;1252;88065;-57
2023/02/05 07:36:08;;;;;;;26.10;13.00;;;;;;;-2.95;81.79;102450.61;107608;1252;95401;-57
2023/02/05 07:38:45;;;;;;;49.50;21.60;;;;;;;-2.84;81.64;102444.92;107615;1253;78187;-60
2023/02/05 07:41:20;;;;;;;40.40;18.60;;;;;;;-2.79;81.74;102445.10;107664;1252;83492;-62
2023/02/05 07:43:57;;;;;;;;;;;;;;;-2.66;81.64;102452.20;107656;1252;99308;-57
2023/02/05 07:47:12;;;;;;;42.40;16.70;;;;;;;-2.57;81.54;102452.38;107607;1253;88488;-57
2023/02/05 07:49:53;;;;;;;45.20;18.70;;;;;;;-2.44;81.17;102455.27;107579;1255;94229;-65
2023/02/05 07:52:33;;;;;;;44.10;20.90;;;;;;;-2.34;80.87;102456.48;107603;1255;81166;-59
2023/02/05 07:55:11;;;;;;;23.90;12.70;;;;;;;-2.33;80.82;102459.45;107587;1253;83160;-58
2023/02/05 07:57:50;;;;;;;43.30;25.40;;;;;;;-2.27;80.75;102460.29;107614;1252;99802;-58
2023/02/05 08:00:25;;;;;;;32.10;20.20;;;;;;;-2.16;80.64;102462.15;107664;1255;89335;-59
2023/02/05 08:03:09;;;;;;;29.20;19.10;;;;;;;-2.12;80.47;102457.94;107640;1253;94460;-59
2023/02/05 08:05:49;;;;;;;34.00;16.60;;;;;;;-2.09;80.23;102459.77;107654;1252;80621;-57
2023/02/05 08:08:30;;;;;;;43.20;17.40;;;;;;;-2.04;80.24;102460.27;107664;1253;82179;-57
2023/02/05 08:11:13;;;;;;;44.40;19.40;;;;;;;-1.99;80.22;102462.38;107554;1252;97721;-59
2023/02/05 08:13:55;;;;;;;27.90;14.00;;;;;;;-2.03;80.09;102466.23;107614;1253;88972;-59
2023/02/05 08:16:33;;;;;;;21.20;11.00;;;;;;;-2.03;79.73;102472.77;107541;1253;93615;-59
2023/02/05 08:19:16;;;;;;;37.00;18.60;;;;;;;-2.05;79.86;102474.06;107669;1253;78767;-58
2023/02/05 08:21:58;;;;;;;19.80;11.20;;;;;;;-1.95;79.63;102480.92;107653;1252;79594;-59
2023/02/05 08:24:35;;;;;;;19.10;10.60;;;;;;;-1.96;79.62;102487.68;107650;1253;99755;-58
2023/02/05 08:27:13;;;;;;;19.50;9.90;;;;;;;-1.97;79.72;102491.94;107619;1252;88862;-58
2023/02/05 08:34:37;;;;;;;25.70;12.80;;;;;;;-1.89;79.40;102501.36;107838;1247;77144;-58
2023/02/05 08:37:15;;;;;;;67.70;34.40;;;;;;;-1.85;79.27;102504.53;107705;1250;82223;-58
2023/02/05 08:39:54;;;;;;;55.10;28.10;;;;;;;-1.80;79.24;102506.30;107690;1253;98927;-59
2023/02/05 08:42:37;;;;;;;33.20;18.00;;;;;;;-1.79;79.37;102506.26;107679;1250;88499;-56
2023/02/05 08:45:16;;;;;;;;;;;;;;;-1.83;79.14;102501.30;107676;1250;92635;-59
2023/02/05 08:47:52;;;;;;;21.00;12.20;;;;;;;-1.81;79.27;102502.09;107647;1250;81769;-58
2023/02/05 08:50:30;;;;;;;18.40;10.30;;;;;;;-1.70;79.22;102505.90;107682;1251;81880;-58
2023/02/05 08:53:13;;;;;;;91.70;29.70;;;;;;;-1.59;79.08;102504.79;107640;1250;99555;-58
2023/02/05 08:55:57;;;;;;;51.30;18.60;;;;;;;-1.47;79.06;102508.91;107619;1250;88713;-57
2023/02/05 08:58:35;;;;;;;29.00;12.60;;;;;;;-1.33;78.91;102512.55;107690;1250;94061;-59
2023/02/05 09:01:12;;;;;;;30.50;13.00;;;;;;;-1.19;78.90;102514.99;107699;1250;78726;-58
2023/02/05 09:04:03;;;;;;;20.50;10.70;;;;;;;-1.12;78.73;102522.30;107677;1251;81360;-57
2023/02/05 09:06:46;;;;;;;30.90;13.70;;;;;;;-1.03;78.54;102527.25;107697;1250;97274;-57
2023/02/05 09:09:33;;;;;;;33.90;15.50;;;;;;;-1.06;78.34;102528.25;107724;1251;87742;-59
2023/02/05 09:12:12;;;;;;;18.80;10.20;;;;;;;-1.01;78.21;102537.73;107671;1250;95362;-59
2023/02/05 09:14:48;;;;;;;42.50;19.80;;;;;;;-0.92;78.11;102541.79;107679;1250;77951;-59
2023/02/05 09:17:32;;;;;;;27.80;14.00;;;;;;;-0.74;78.09;102541.40;107664;1253;81569;-58
2023/02/05 09:20:07;;;;;;;21.30;11.70;;;;;;;-0.44;78.05;102547.86;107715;1251;99612;-57
2023/02/05 09:22:45;;;;;;;34.40;21.50;;;;;;;-0.27;77.83;102555.45;107710;1254;87119;-57
2023/02/05 09:25:24;;;;;;;140.80;75.00;;;;;;;-0.33;77.44;102552.16;107652;1250;94344;-56
2023/02/05 09:28:06;;;;;;;59.40;34.30;;;;;;;-0.51;77.21;102553.12;107634;1251;79333;-58
2023/02/05 09:30:53;;;;;;;26.70;15.00;;;;;;;-0.61;77.06;102556.74;107704;1254;82831;-59
2023/02/05 09:33:36;;;;;;;49.10;25.10;;;;;;;-0.68;76.71;102560.92;107684;1250;99736;-57
2023/02/05 09:36:15;;;;;;;65.70;23.70;;;;;;;-0.84;76.37;102568.16;107657;1250;89308;-57
2023/02/05 09:38:55;;;;;;;72.00;28.90;;;;;;;-1.01;76.07;102571.17;107709;1250;94097;-59
2023/02/05 09:41:42;;;;;;;57.40;23.70;;;;;;;-1.14;76.13;102573.30;107670;1254;79052;-60
2023/02/05 09:44:41;;;;;;;17.50;9.80;;;;;;;-1.14;75.88;102575.95;107713;1251;82538;-58
2023/02/05 09:47:29;;;;;;;44.60;19.60;;;;;;;-1.17;75.95;102573.44;107667;1250;99177;-57
2023/02/05 09:50:24;;;;;;;28.40;14.10;;;;;;;-1.20;76.03;102566.29;107653;1250;87865;-58
2023/02/05 09:53:05;;;;;;;32.00;14.70;;;;;;;-1.24;76.12;102564.33;107610;1251;93020;-59
2023/02/05 09:55:49;;;;;;;23.80;12.30;;;;;;;-1.29;76.31;102562.75;107703;1255;79767;-57
2023/02/05 09:58:43;;;;;;;36.10;16.40;;;;;;;-1.34;76.08;102563.84;107647;1251;82653;-57
2023/02/05 10:01:29;;;;;;;32.50;14.70;;;;;;;-1.33;76.17;102560.83;107530;1254;99722;-56
2023/02/05 10:04:08;;;;;;;39.30;20.50;;;;;;;-1.22;76.14;102560.20;107559;1253;89784;-56
2023/02/05 10:07:28;;;;;;;37.60;21.00;;;;;;;-1.16;76.37;102558.87;107574;1253;93777;-57
2023/02/05 10:10:26;;;;;;;23.80;13.70;;;;;;;-1.14;76.15;102557.39;107555;1256;79606;-57
2023/02/05 10:13:36;;;;;;;21.10;12.60;;;;;;;-1.12;76.20;102556.08;107572;1256;83400;-58
2023/02/05 10:16:44;;;;;;;23.70;13.30;;;;;;;-1.03;76.40;102557.98;107431;1254;98449;-62
2023/02/05 10:20:06;;;;;;;31.20;19.10;;;;;;;-0.90;76.36;102555.84;107594;1253;88386;-63
2023/02/05 10:22:54;;;;;;;43.70;17.60;;;;;;;-0.81;76.30;102562.20;107411;1254;92793;-63
2023/02/05 10:25:57;;;;;;;98.80;33.00;;;;;;;-0.70;76.12;102559.23;107447;1259;79929;-62
2023/02/05 10:29:07;;;;;;;84.40;30.80;;;;;;;-0.70;75.87;102559.98;107480;1259;81430;-61
2023/02/05 10:31:53;;;;;;;51.10;21.00;;;;;;;-0.64;75.91;102560.96;107416;1256;98919;-62
2023/02/05 10:34:45;;;;;;;36.60;16.70;;;;;;;-0.58;75.81;102554.69;107466;1258;89873;-60
2023/02/05 10:37:28;;;;;;;33.10;15.70;;;;;;;-0.56;75.78;102554.08;107432;1257;95673;-60
2023/02/05 10:40:15;;;;;;;27.60;12.70;;;;;;;-0.67;75.40;102554.17;107470;1255;80011;-60
2023/02/05 10:42:57;;;;;;;18.10;8.90;;;;;;;-0.68;75.25;102551.55;107310;1255;82847;-59
2023/02/05 10:45:37;;;;;;;29.30;14.20;;;;;;;-0.66;75.14;102545.97;107457;1259;97246;-59
2023/02/05 10:48:38;;;;;;;57.70;31.50;;;;;;;-0.71;75.16;102544.59;107415;1256;88957;-58
2023/02/05 10:51:23;;;;;;;40.90;24.90;;;;;;;-0.72;75.23;102540.59;107419;1259;95727;-61
2023/02/05 10:54:11;;;;;;;36.80;25.50;;;;;;;-0.69;75.21;102538.34;107435;1254;79222;-59
2023/02/05 10:56:57;;;;;;;19.70;13.00;;;;;;;-0.66;75.24;102527.92;107449;1257;82605;-61
2023/02/05 10:59:46;;;;;;;16.00;9.70;;;;;;;-0.61;75.29;102531.44;107470;1256;100415;-59
2023/02/05 11:02:29;;;;;;;41.20;18.70;;;;;;;-0.62;75.25;102531.85;107437;1257;88450;-58
2023/02/05 11:05:17;;;;;;;61.70;26.40;;;;;;;-0.47;75.39;102529.08;107440;1254;94675;-59
2023/02/05 11:07:53;;;;;;;47.60;20.10;;;;;;;-0.42;75.38;102520.55;107439;1257;80627;-60
2023/02/05 11:10:37;;;;;;;65.10;28.10;;;;;;;-0.30;75.37;102517.16;107497;1255;82874;-59
2023/02/05 11:13:22;;;;;;;48.40;21.00;;;;;;;-0.25;75.26;102517.31;107431;1259;99291;-59
2023/02/05 11:16:08;;;;;;;29.00;13.90;;;;;;;-0.20;75.28;102514.41;107450;1256;89550;-61
2023/02/05 11:18:56;;;;;;;42.70;20.40;;;;;;;-0.05;75.22;102511.05;107409;1258;94679;-62
2023/02/05 11:21:54;;;;;;;48.40;22.80;;;;;;;0.04;75.18;102499.86;107444;1259;78465;-61
2023/02/05 11:24:38;;;;;;;30.30;15.40;;;;;;;0.06;75.12;102500.98;107462;1254;82799;-60
2023/02/05 11:27:34;;;;;;;;;;;;;;;0.15;75.03;102500.73;107451;1254;98338;-59
2023/02/05 11:30:31;;;;;;;25.90;13.90;;;;;;;0.11;74.81;102494.91;107430;1256;89067;-59
2023/02/05 11:33:30;;;;;;;32.80;15.60;;;;;;;0.09;74.90;102502.98;107476;1254;95754;-58
2023/02/05 11:36:15;;;;;;;30.80;15.40;;;;;;;0.04;74.64;102507.29;107486;1253;78995;-63
2023/02/05 11:39:01;;;;;;;15.20;9.40;;;;;;;-0.07;74.43;102516.11;107548;1253;83247;-61
2023/02/05 11:41:48;;;;;;;11.90;6.90;;;;;;;-0.17;74.19;102510.39;107498;1253;99044;-61
2023/02/05 11:44:34;;;;;;;24.70;16.30;;;;;;;-0.14;74.10;102509.90;107550;1253;86727;-56
2023/02/05 11:47:11;;;;;;;16.20;10.70;;;;;;;-0.16;73.93;102506.45;107495;1257;94867;-56
2023/02/05 11:49:53;;;;;;;13.20;9.10;;;;;;;-0.16;73.92;102503.41;107500;1253;79927;-59
2023/02/05 11:52:35;;;;;;;12.70;7.90;;;;;;;-0.15;73.80;102501.23;107531;1253;82473;-59
2023/02/05 11:55:33;;;;;;;13.10;7.70;;;;;;;-0.26;73.64;102501.77;107523;1253;99847;-60
2023/02/05 11:58:23;;;;;;;13.70;8.60;;;;;;;-0.39;73.47;102505.02;107226;1253;381221;-59
2023/02/05 12:01:22;;;;;;;11.10;8.30;;;;;;;-0.39;73.35;102508.36;107480;1253;92988;-59
2023/02/05 12:04:16;;;;;;;10.60;7.00;;;;;;;-0.43;73.11;102507.13;107515;1253;79287;-57
2023/02/05 12:06:55;;;;;;;10.80;7.30;;;;;;;-0.41;73.21;102502.27;107508;1257;82638;-57
2023/02/05 12:09:34;;;;;;;9.20;6.60;;;;;;;-0.42;73.09;102495.92;107581;1253;98283;-58
2023/02/05 12:12:21;;;;;;;9.90;6.20;;;;;;;-0.41;73.05;102491.63;107525;1254;88133;-56
2023/02/05 12:15:12;;;;;;;10.20;6.40;;;;;;;-0.38;72.95;102493.81;107355;1254;95522;-58
2023/02/05 12:17:57;;;;;;;9.60;6.30;;;;;;;-0.33;72.93;102491.80;107516;1259;79915;-59
2023/02/05 12:20:38;;;;;;;10.50;6.20;;;;;;;-0.29;72.98;102493.20;107573;1254;82634;-59
2023/02/05 12:23:53;;;;;;;9.00;5.50;;;;;;;-0.19;73.01;102495.95;107537;1254;99390;-60
2023/02/05 12:26:36;;;;;;;8.50;5.40;;;;;;;-0.22;72.66;102496.41;107482;1253;88456;-57